createdAt,value
2023-05-05T00:03:51.865Z,3.8
2023-05-05T00:33:53.822Z,3.9
2023-05-05T01:03:55.875Z,3.7
2023-05-05T01:33:59.489Z,4.9
2023-05-05T02:04:00.735Z,5.1
2023-05-05T02:34:01.873Z,5.7
2023-05-05T03:04:08.396Z,4.8
2023-05-05T03:34:04.789Z,4.1
2023-05-05T04:04:06.632Z,4
2023-05-05T04:34:08.079Z,4.6
2023-05-05T05:04:10.375Z,4.4
2023-05-05T05:34:12.667Z,4.8
2023-05-05T06:04:13.297Z,5.2
2023-05-05T06:34:14.979Z,5.8
2023-05-05T07:04:17.448Z,5.4
2023-05-05T07:34:22.791Z,4.3
2023-05-05T08:04:23.064Z,2.2
2023-05-05T08:34:29.641Z,1.2
2023-05-05T09:04:30.354Z,1.3
2023-05-05T09:34:33.940Z,0.9
2023-05-05T10:04:37.394Z,0.8
2023-05-05T10:34:49.789Z,0.9
2023-05-05T11:04:45.962Z,0.9
2023-05-05T11:34:55.935Z,0.9
2023-05-05T12:04:51.803Z,0.9
2023-05-05T12:34:57.784Z,1
2023-05-05T13:05:01.452Z,1.1
2023-05-05T13:35:01.944Z,1.3
2023-05-05T14:05:04.609Z,1.4
2023-05-05T14:35:07.513Z,1.1
2023-05-05T15:05:13.062Z,1.9
2023-05-05T15:35:12.791Z,1.8
2023-05-05T16:05:15.180Z,1.5
2023-05-05T16:35:17.777Z,2.2
2023-05-05T17:05:21.467Z,2.2
2023-05-05T17:35:23.837Z,4.4
2023-05-05T18:05:26.627Z,3.2
2023-05-05T18:35:29.333Z,3.1
2023-05-05T19:05:35.057Z,3.2
2023-05-05T19:35:34.027Z,3.7
2023-05-05T20:05:36.336Z,3.9
2023-05-05T20:35:38.803Z,4.6
2023-05-05T21:05:42.878Z,4.2
2023-05-05T21:35:42.724Z,3.7
2023-05-05T22:05:44.353Z,3.4
2023-05-05T22:35:46.204Z,3.1
2023-05-05T23:05:47.604Z,3
2023-05-05T23:35:49.493Z,3.7
